ADDS METAR Data INFO
IDs: Format: Raw Decoded Include TAF

Data at: 2031 UTC 16 Dec 2017

KHDO 161951Z AUTO 23005KT 10SM OVC027 09/08 A3009 RMK AO2 RAE35 SLP184 P0003 T00890083
KHDO 161939Z AUTO 21006KT 10SM BKN027 BKN032 OVC045 09/08 A3009 RMK AO2 RAE35 P0003 T00890078
KHDO 161851Z AUTO 14006KT 6SM -RA BKN038 BKN045 OVC050 09/06 A3011 RMK AO2 SLP191 P0012 T00890061
KHDO 161830Z AUTO 16006KT 4SM RA FEW029 OVC055 08/06 A3012 RMK AO2 P0010 T00830056
KHDO 161822Z AUTO 15009KT 3SM +RA BKN029 OVC049 09/06 A3013 RMK AO2 P0008 T00890056
KHDO 161816Z AUTO 17009KT 2SM +RA BKN030 OVC049 09/05 A3014 RMK AO2 P0006 T00890050
KHDO 161751Z AUTO VRB04KT 10SM -RA BKN030 OVC035 11/04 A3016 RMK AO2 RAB46 SLP208 P0000 60000 T01060044 10111 20078 50008
KHDO 161651Z AUTO 23003KT 10SM OVC031 11/05 A3016 RMK AO2 SLP210 T01060050
KHDO 161551Z AUTO 17004KT 10SM BKN050 11/06 A3014 RMK AO2 SLP203 T01060056
KHDO 161451Z AUTO 10005KT 10SM FEW055 BKN100 09/05 A3013 RMK AO2 PK WND 09029/1404 RAB00E37 SLP198 P0000 60000 T00890050 58006
KHDO 161351Z AUTO 10SM FEW050 OVC060 08/04 A3014 RMK AO2 PK WND 09029/1338 SLP202 T00830044
KHDO 161251Z AUTO 00000KT 10SM OVC055 08/04 A3015 RMK AO2 SLP204 T00830039
KHDO 161151Z AUTO 04003KT 10SM OVC065 08/04 A3015 RMK AO2 SLP205 T00780044 10078 20050 56019
KHDO 161051Z AUTO 00000KT 10SM OVC075 08/04 A3017 RMK AO2 SLP212 T00780044
KHDO 160951Z AUTO 08003KT 10SM OVC080 08/04 A3018 RMK AO2 SLP215 T00780039
KHDO 160851Z AUTO 00000KT 10SM OVC080 07/04 A3021 RMK AO2 SLP224 T00720039 58017
KHDO 160751Z AUTO 33003KT 10SM BKN085 07/03 A3023 RMK AO2 SLP230 T00670028
KHDO 160651Z AUTO 25003KT 10SM CLR 06/02 A3026 RMK AO2 SLP241 T00610022
KHDO 160551Z AUTO 22003KT 10SM CLR 06/02 A3026 RMK AO2 SLP242 T00610017 10117 20061 401720061 55003
KHDO 160451Z AUTO 00000KT 10SM CLR 07/02 A3026 RMK AO2 SLP241 T00720022
KHDO 160351Z AUTO 17003KT 10SM CLR 09/02 A3027 RMK AO2 SLP243 T00940022
KHDO 160251Z AUTO 14004KT 10SM CLR 09/03 A3027 RMK AO2 SLP246 T00940028 50007
KHDO 160151Z AUTO 25004KT 10SM CLR 09/02 A3027 RMK AO2 SLP246 T00940022
KHDO 160051Z AUTO 22005KT 10SM CLR 10/02 A3026 RMK AO2 SLP242 T01000022
KHDO 152351Z AUTO 19006KT 10SM CLR 12/01 A3025 RMK AO2 SLP237 T01170011 10172 20117 51001
KHDO 152251Z AUTO 19008KT 10SM CLR 14/00 A3025 RMK AO2 SLP235 T01440000
KHDO 152151Z AUTO 16003KT 10SM CLR 16/M01 A3025 RMK AO2 SLP238 T01561011
KHDO 152051Z AUTO 06006KT 10SM CLR 16/M02 A3024 RMK AO2 SLP235 T01611017 58026
KHDO 151951Z AUTO 06005KT 10SM CLR 16/M01 A3027 RMK AO2 SLP242 T01611006
KHDO 151851Z AUTO 36007KT 10SM CLR 15/M01 A3031 RMK AO2 SLP255 T01501006
KHDO 151751Z AUTO 03008KT 10SM CLR 13/M01 A3032 RMK AO2 SLP261 T01331011 10139 20083 50004
KHDO 151651Z AUTO 02012KT 10SM CLR 14/M01 A3035 RMK AO2 SLP270 T01391011
KHDO 151551Z AUTO 01007KT 10SM CLR 12/M01 A3034 RMK AO2 SLP266 T01221011
KHDO 151451Z AUTO 01005KT 10SM CLR 11/00 A3031 RMK AO2 SLP259 T01060000 51013
KHDO 151351Z AUTO 34006KT 10SM CLR 09/01 A3030 RMK AO2 SLP256 T00890011
KHDO 151251Z AUTO 36004KT 10SM CLR 09/01 A3029 RMK AO2 SLP251 T00890011
KHDO 151151Z AUTO 35006KT 10SM OVC100 10/00 A3027 RMK AO2 SLP245 60000 T01000000 10144 20100 53007
KHDO 151051Z AUTO 01007KT 10SM OVC100 11/M01 A3025 RMK AO2 SLP237 T01061006
KHDO 150951Z AUTO 01007KT 10SM OVC085 11/01 A3026 RMK AO2 RAE02 SLP241 P0000 T01060006
KHDO 150851Z AUTO 02007KT 10SM -RA BKN060 OVC080 11/02 A3025 RMK AO2 RAB12 SLP237 P0000 60000 T01060022 51031